Time;durP1;ratioP1;P1;durP2;ratioP2;P2;SDS_P1;SDS_P2;PMS_P1;PMS_P2;Temp;Humidity;BMP_temperature;BMP_pressure;BME280_temperature;BME280_humidity;BME280_pressure;Samples;Min_cycle;Max_cycle;Signal;HPM_P1;HPM_P2
2021/03/23 00:01:25;;;;;;;3.53;1.48;;;;;;;;;;4961057;28;20146;-80
2021/03/23 00:03:53;;;;;;;4.35;1.58;;;;;;;;;;4955009;28;20047;-81
2021/03/23 00:06:22;;;;;;;4.82;1.33;;;;;;;;;;4937332;29;20126;-80
2021/03/23 00:08:50;;;;;;;5.50;1.40;;;;;;;;;;4967958;28;20145;-81
2021/03/23 00:11:20;;;;;;;7.50;1.10;;;;;;;;;;4955545;28;20120;-80
2021/03/23 00:13:49;;;;;;;4.97;1.35;;;;;;;;;;4973047;28;20142;-80
2021/03/23 00:16:17;;;;;;;5.10;1.52;;;;;;;;;;4968187;28;20098;-81
2021/03/23 00:18:46;;;;;;;6.10;1.63;;;;;;;;;;4974058;28;20695;-81
2021/03/23 00:21:13;;;;;;;7.82;1.30;;;;;;;;;;4950788;28;20055;-80
2021/03/23 00:23:40;;;;;;;3.88;1.40;;;;;;;;;;4991614;28;20129;-81
2021/03/23 00:26:08;;;;;;;3.55;1.38;;;;;;;;;;4956909;28;20042;-80
2021/03/23 00:28:35;;;;;;;4.70;1.33;;;;;;;;;;4952301;28;20055;-81
2021/03/23 00:31:02;;;;;;;3.40;1.30;;;;;;;;;;4968623;28;20046;-80
2021/03/23 00:33:29;;;;;;;4.57;1.30;;;;;;;;;;4956837;28;20061;-80
2021/03/23 00:35:59;;;;;;;6.97;1.65;;;;;;;;;;4958305;28;20615;-80
2021/03/23 00:38:26;;;;;;;4.15;1.38;;;;;;;;;;4988605;28;20156;-80
2021/03/23 00:40:53;;;;;;;3.90;1.65;;;;;;;;;;4946399;28;20106;-80
2021/03/23 00:43:21;;;;;;;2.58;1.40;;;;;;;;;;4951058;28;20651;-80
2021/03/23 00:45:48;;;;;;;7.68;1.50;;;;;;;;;;4971294;28;20054;-80
2021/03/23 00:48:15;;;;;;;5.55;2.00;;;;;;;;;;4982694;28;20153;-80
2021/03/23 00:50:42;;;;;;;4.22;1.35;;;;;;;;;;4971343;28;20054;-80
2021/03/23 00:53:10;;;;;;;2.35;1.25;;;;;;;;;;4955333;28;20054;-80
2021/03/23 00:55:36;;;;;;;7.32;1.85;;;;;;;;;;4971743;28;20051;-80
2021/03/23 00:58:03;;;;;;;5.28;1.58;;;;;;;;;;4966839;28;20459;-80
2021/03/23 01:00:30;;;;;;;7.55;1.73;;;;;;;;;;4961545;28;20097;-80
2021/03/23 01:02:57;;;;;;;8.70;2.25;;;;;;;;;;4963518;28;20054;-80
2021/03/23 01:05:28;;;;;;;2.55;1.10;;;;;;;;;;4964579;28;21064;-80
2021/03/23 01:07:55;;;;;;;6.88;1.58;;;;;;;;;;4957586;28;20529;-80
2021/03/23 01:10:23;;;;;;;6.75;1.63;;;;;;;;;;4954605;28;20106;-80
2021/03/23 01:12:49;;;;;;;5.55;1.48;;;;;;;;;;4971299;28;20146;-80
2021/03/23 01:15:18;;;;;;;7.55;1.63;;;;;;;;;;4953854;28;20138;-80
2021/03/23 01:17:45;;;;;;;2.85;1.00;;;;;;;;;;4953755;28;20070;-80
2021/03/23 01:20:13;;;;;;;6.80;1.90;;;;;;;;;;4954572;28;20058;-80
2021/03/23 01:22:39;;;;;;;6.97;1.40;;;;;;;;;;4945967;28;20074;-80
2021/03/23 01:25:07;;;;;;;7.57;1.65;;;;;;;;;;4964400;28;20070;-80
2021/03/23 01:27:33;;;;;;;3.90;1.40;;;;;;;;;;4970290;28;20043;-80
2021/03/23 01:30:00;;;;;;;8.50;1.95;;;;;;;;;;4980998;28;20078;-80
2021/03/23 01:32:27;;;;;;;5.47;1.73;;;;;;;;;;4967828;28;20084;-80
2021/03/23 01:34:54;;;;;;;6.72;1.50;;;;;;;;;;4957287;28;20051;-81
2021/03/23 01:37:20;;;;;;;8.50;1.70;;;;;;;;;;4967607;28;20078;-81
2021/03/23 01:39:47;;;;;;;7.57;1.70;;;;;;;;;;4961778;28;20051;-80
2021/03/23 01:42:15;;;;;;;5.95;1.35;;;;;;;;;;4947986;28;20459;-80
2021/03/23 01:44:43;;;;;;;5.88;1.60;;;;;;;;;;4970712;28;20481;-80
2021/03/23 01:47:10;;;;;;;7.30;1.85;;;;;;;;;;4959317;28;20440;-80
2021/03/23 01:49:46;;;;;;;7.03;1.50;;;;;;;;;;4990247;28;20476;-80
2021/03/23 01:52:15;;;;;;;2.60;1.40;;;;;;;;;;4973860;28;20125;-80
2021/03/23 01:54:49;;;;;;;3.55;1.45;;;;;;;;;;4964646;28;20518;-80
2021/03/23 01:57:16;;;;;;;7.20;1.55;;;;;;;;;;4977591;28;20055;-80
2021/03/23 01:59:46;;;;;;;10.30;1.70;;;;;;;;;;4948812;28;20086;-80
2021/03/23 02:02:14;;;;;;;6.00;1.85;;;;;;;;;;4963685;28;20138;-80
2021/03/23 02:04:45;;;;;;;4.68;1.50;;;;;;;;;;4985434;28;20055;-80
2021/03/23 02:07:11;;;;;;;6.22;1.90;;;;;;;;;;4958553;28;20138;-80
2021/03/23 02:09:38;;;;;;;6.10;1.95;;;;;;;;;;4950224;28;20043;-80
2021/03/23 02:12:05;;;;;;;7.15;1.83;;;;;;;;;;4957363;28;20058;-80
2021/03/23 02:14:35;;;;;;;4.93;1.90;;;;;;;;;;4972099;28;20113;-80
2021/03/23 02:17:15;;;;;;;5.38;1.85;;;;;;;;;;4978810;28;20070;-80
2021/03/23 02:19:42;;;;;;;3.65;1.70;;;;;;;;;;4957144;28;20175;-81
2021/03/23 02:22:13;;;;;;;3.72;2.17;;;;;;;;;;4951510;28;20051;-81
2021/03/23 02:24:40;;;;;;;5.57;1.98;;;;;;;;;;4967951;28;20078;-80
2021/03/23 02:27:07;;;;;;;5.60;2.22;;;;;;;;;;4957886;28;20058;-80
2021/03/23 02:29:33;;;;;;;5.10;1.98;;;;;;;;;;4948771;29;20051;-80
2021/03/23 02:32:01;;;;;;;8.10;2.63;;;;;;;;;;4954689;28;20078;-80
2021/03/23 02:34:27;;;;;;;5.15;2.42;;;;;;;;;;4983996;28;20054;-80
2021/03/23 02:36:54;;;;;;;4.85;2.00;;;;;;;;;;4973979;28;20051;-80
2021/03/23 02:39:23;;;;;;;9.40;2.25;;;;;;;;;;4958871;28;20085;-80
2021/03/23 02:41:50;;;;;;;11.20;2.20;;;;;;;;;;4973025;28;20558;-80
2021/03/23 02:44:17;;;;;;;5.25;2.30;;;;;;;;;;4961087;28;20566;-80
2021/03/23 02:46:44;;;;;;;11.50;2.33;;;;;;;;;;4983624;28;20073;-80
2021/03/23 02:49:11;;;;;;;8.05;2.47;;;;;;;;;;4977612;28;20050;-81
2021/03/23 02:51:37;;;;;;;9.43;2.50;;;;;;;;;;4961678;28;20083;-81
2021/03/23 02:54:04;;;;;;;15.18;2.55;;;;;;;;;;4953530;28;20051;-80
2021/03/23 02:56:35;;;;;;;9.07;3.33;;;;;;;;;;4976383;28;20049;-80
2021/03/23 02:59:02;;;;;;;10.57;3.20;;;;;;;;;;4973264;28;20043;-80
2021/03/23 03:04:16;;;;;;;6.72;3.13;;;;;;;;;;4987761;28;20568;-77
2021/03/23 03:06:43;;;;;;;11.90;4.45;;;;;;;;;;4976200;28;20054;-77
2021/03/23 03:09:09;;;;;;;9.02;3.90;;;;;;;;;;4973008;28;20081;-78
2021/03/23 03:11:36;;;;;;;10.18;3.97;;;;;;;;;;4976635;28;20121;-77
2021/03/23 03:14:03;;;;;;;11.05;3.55;;;;;;;;;;4966945;28;20460;-78
2021/03/23 03:16:31;;;;;;;15.48;4.20;;;;;;;;;;4976068;28;20093;-78
2021/03/23 03:18:58;;;;;;;10.05;4.00;;;;;;;;;;4976362;28;20769;-78
2021/03/23 03:21:24;;;;;;;14.75;5.20;;;;;;;;;;4976248;28;20057;-78
2021/03/23 03:23:52;;;;;;;13.88;4.78;;;;;;;;;;4988190;28;20057;-78
2021/03/23 03:26:18;;;;;;;10.90;5.03;;;;;;;;;;4976262;28;20560;-78
2021/03/23 03:28:50;;;;;;;18.80;5.97;;;;;;;;;;4975914;28;20073;-78
2021/03/23 03:31:27;;;;;;;18.52;4.82;;;;;;;;;;4972788;28;20082;-78
2021/03/23 03:33:55;;;;;;;13.48;5.70;;;;;;;;;;4962541;28;20140;-80
2021/03/23 03:36:23;;;;;;;16.00;5.18;;;;;;;;;;4977739;28;20050;-80
2021/03/23 03:38:50;;;;;;;9.80;4.35;;;;;;;;;;4972728;28;20133;-80
2021/03/23 03:41:17;;;;;;;13.10;5.30;;;;;;;;;;4975130;28;20108;-80
2021/03/23 03:43:44;;;;;;;18.45;5.22;;;;;;;;;;4992736;28;20129;-80
2021/03/23 03:46:11;;;;;;;10.85;4.90;;;;;;;;;;4975326;28;20354;-80
2021/03/23 03:48:38;;;;;;;12.82;5.53;;;;;;;;;;4991627;28;20070;-80
2021/03/23 03:51:05;;;;;;;13.07;4.53;;;;;;;;;;4987624;28;20130;-80
2021/03/23 03:53:33;;;;;;;14.18;4.95;;;;;;;;;;4987329;28;20090;-81
2021/03/23 03:56:00;;;;;;;14.38;4.45;;;;;;;;;;4973039;28;20176;-81
2021/03/23 03:58:30;;;;;;;10.95;4.25;;;;;;;;;;4974387;28;20125;-80
2021/03/23 04:00:57;;;;;;;16.55;5.15;;;;;;;;;;4992378;28;20046;-80
2021/03/23 04:03:28;;;;;;;7.63;3.88;;;;;;;;;;4973968;28;20053;-80
2021/03/23 04:05:55;;;;;;;16.98;4.80;;;;;;;;;;4985338;28;20066;-80
2021/03/23 04:08:24;;;;;;;11.73;4.43;;;;;;;;;;5003325;28;20096;-80
2021/03/23 04:10:52;;;;;;;20.38;4.72;;;;;;;;;;4989299;28;20053;-80
2021/03/23 04:13:19;;;;;;;13.35;4.80;;;;;;;;;;4967808;28;20573;-80
2021/03/23 04:15:47;;;;;;;11.15;5.07;;;;;;;;;;4972534;28;20140;-80
2021/03/23 04:18:15;;;;;;;17.40;4.78;;;;;;;;;;4983333;28;20482;-81
2021/03/23 04:20:42;;;;;;;16.45;4.80;;;;;;;;;;4974592;28;20050;-81
2021/03/23 04:23:10;;;;;;;13.13;4.38;;;;;;;;;;4985325;28;20129;-81
2021/03/23 04:25:37;;;;;;;12.52;4.15;;;;;;;;;;4994950;28;20061;-81
2021/03/23 04:28:04;;;;;;;15.00;3.65;;;;;;;;;;5006592;28;20077;-80
2021/03/23 04:30:31;;;;;;;9.02;3.60;;;;;;;;;;4974442;28;20078;-80
2021/03/23 04:32:57;;;;;;;13.95;3.35;;;;;;;;;;4991911;28;20046;-81
2021/03/23 04:35:27;;;;;;;7.80;3.35;;;;;;;;;;4974048;28;20141;-80
2021/03/23 04:37:55;;;;;;;17.95;3.17;;;;;;;;;;4972622;28;20112;-80
2021/03/23 04:40:22;;;;;;;13.05;3.22;;;;;;;;;;4991264;28;20690;-80
2021/03/23 04:42:49;;;;;;;10.00;3.83;;;;;;;;;;4991779;28;20085;-81
2021/03/23 04:45:18;;;;;;;7.47;3.13;;;;;;;;;;4972646;28;20047;-81
2021/03/23 04:47:48;;;;;;;11.35;3.53;;;;;;;;;;4989700;28;20046;-81
2021/03/23 04:50:16;;;;;;;5.53;2.97;;;;;;;;;;4971148;28;20047;-81
2021/03/23 04:52:43;;;;;;;12.18;3.47;;;;;;;;;;4971717;28;20137;-81
2021/03/23 04:55:11;;;;;;;14.73;3.22;;;;;;;;;;4973333;28;20054;-81
2021/03/23 04:57:37;;;;;;;10.95;3.45;;;;;;;;;;4972906;28;20054;-80
2021/03/23 05:00:09;;;;;;;10.65;3.95;;;;;;;;;;4965452;28;20050;-80
2021/03/23 05:02:35;;;;;;;6.63;3.25;;;;;;;;;;4998550;28;20050;-80
2021/03/23 05:05:03;;;;;;;11.35;3.95;;;;;;;;;;4986369;28;20046;-80
2021/03/23 05:07:30;;;;;;;8.63;3.53;;;;;;;;;;4982023;28;20105;-80
2021/03/23 05:09:56;;;;;;;8.32;3.10;;;;;;;;;;4971325;28;20139;-80
2021/03/23 05:12:23;;;;;;;4.80;2.58;;;;;;;;;;4986886;28;20139;-80
2021/03/23 05:14:50;;;;;;;9.85;2.85;;;;;;;;;;4986491;28;20054;-81
2021/03/23 05:17:16;;;;;;;8.50;3.08;;;;;;;;;;4986467;28;20082;-81
2021/03/23 05:19:44;;;;;;;9.73;3.50;;;;;;;;;;4971725;28;20054;-81
2021/03/23 05:22:11;;;;;;;8.68;2.90;;;;;;;;;;4991579;28;20054;-81
2021/03/23 05:24:38;;;;;;;12.13;2.70;;;;;;;;;;4970348;28;20054;-81
2021/03/23 05:27:06;;;;;;;7.65;2.70;;;;;;;;;;4980293;28;20053;-81
2021/03/23 05:29:34;;;;;;;12.27;3.05;;;;;;;;;;4990910;28;20082;-81
2021/03/23 05:32:00;;;;;;;26.00;3.35;;;;;;;;;;5003793;28;20043;-81
2021/03/23 05:34:27;;;;;;;12.65;3.25;;;;;;;;;;4974207;28;20402;-80
2021/03/23 05:36:54;;;;;;;8.90;2.83;;;;;;;;;;4961103;28;20086;-80
2021/03/23 05:39:21;;;;;;;7.38;3.00;;;;;;;;;;4976052;28;20061;-81
2021/03/23 05:41:47;;;;;;;7.70;2.67;;;;;;;;;;4988963;28;20522;-81
2021/03/23 05:44:30;;;;;;;10.45;3.78;;;;;;;;;;4967249;28;20125;-81
2021/03/23 05:47:01;;;;;;;14.13;3.03;;;;;;;;;;4958864;28;20557;-82
2021/03/23 05:49:51;;;;;;;11.68;3.70;;;;;;;;;;4977499;28;20062;-81
2021/03/23 05:52:21;;;;;;;7.82;2.85;;;;;;;;;;4975802;28;20218;-81
2021/03/23 05:55:15;;;;;;;13.68;2.90;;;;;;;;;;4975166;28;20085;-82
2021/03/23 05:57:44;;;;;;;9.10;2.38;;;;;;;;;;4990780;28;20436;-81
2021/03/23 06:00:11;;;;;;;12.13;4.05;;;;;;;;;;4975651;28;20058;-85
2021/03/23 06:02:57;;;;;;;17.73;2.85;;;;;;;;;;4973500;28;20047;-81
2021/03/23 06:05:24;;;;;;;;;;;;;;;;;;4968836;28;20055;-83
2021/03/23 06:08:16;;;;;;;4.57;2.88;;;;;;;;;;4974205;28;19922;-80
2021/03/23 06:10:43;;;;;;;6.70;4.53;;;;;;;;;;4971501;28;20487;-76
2021/03/23 06:13:25;;;;;;;20.58;3.47;;;;;;;;;;4972037;28;20492;-78
2021/03/23 06:16:10;;;;;;;11.52;2.38;;;;;;;;;;4970509;28;20492;-77
2021/03/23 06:18:50;;;;;;;15.85;2.53;;;;;;;;;;4972807;28;20693;-77
2021/03/23 06:21:22;;;;;;;10.63;2.55;;;;;;;;;;4968653;28;20133;-76
2021/03/23 06:23:52;;;;;;;6.05;3.08;;;;;;;;;;4970446;28;20090;-75
2021/03/23 06:26:37;;;;;;;9.18;2.47;;;;;;;;;;4970093;28;20066;-75
2021/03/23 06:29:22;;;;;;;8.63;2.53;;;;;;;;;;4969343;28;20399;-76
2021/03/23 06:31:53;;;;;;;11.80;2.95;;;;;;;;;;4970445;28;20055;-77
2021/03/23 06:34:22;;;;;;;23.48;3.35;;;;;;;;;;4987499;28;20105;-79
2021/03/23 06:36:50;;;;;;;10.70;2.60;;;;;;;;;;4971846;28;20078;-78
2021/03/23 06:39:17;;;;;;;6.07;3.17;;;;;;;;;;4971116;28;20121;-78
2021/03/23 06:41:57;;;;;;;8.80;2.30;;;;;;;;;;4953404;28;20051;-77
2021/03/23 06:44:26;;;;;;;13.43;2.97;;;;;;;;;;4970653;28;20054;-78
2021/03/23 06:46:53;;;;;;;11.15;2.83;;;;;;;;;;4958971;28;20134;-77
2021/03/23 06:49:27;;;;;;;13.05;3.05;;;;;;;;;;4964378;28;20110;-78
2021/03/23 06:51:55;;;;;;;6.57;2.42;;;;;;;;;;4954310;28;20059;-78
2021/03/23 06:54:47;;;;;;;11.90;3.33;;;;;;;;;;4970792;28;20053;-78
2021/03/23 06:57:19;;;;;;;14.20;3.08;;;;;;;;;;4961757;28;20117;-77
2021/03/23 06:59:58;;;;;;;16.33;3.20;;;;;;;;;;4969087;28;20110;-77
2021/03/23 07:02:29;;;;;;;6.70;2.95;;;;;;;;;;4975142;28;20141;-77
2021/03/23 07:04:57;;;;;;;13.77;3.35;;;;;;;;;;4966807;28;20054;-78
2021/03/23 07:07:24;;;;;;;10.25;2.85;;;;;;;;;;4989657;28;20570;-78
2021/03/23 07:09:50;;;;;;;13.73;3.58;;;;;;;;;;4976290;28;20082;-78
2021/03/23 07:12:18;;;;;;;12.20;3.75;;;;;;;;;;4974056;28;20058;-78
2021/03/23 07:14:46;;;;;;;12.10;4.10;;;;;;;;;;4973382;28;20599;-78
2021/03/23 07:17:13;;;;;;;17.10;5.18;;;;;;;;;;4969811;28;20050;-78
2021/03/23 07:19:47;;;;;;;11.73;4.57;;;;;;;;;;4975042;28;20050;-78
2021/03/23 07:22:35;;;;;;;17.85;4.70;;;;;;;;;;4981366;28;20050;-78
2021/03/23 07:25:07;;;;;;;14.27;4.10;;;;;;;;;;4976720;28;20053;-80
2021/03/23 07:27:35;;;;;;;12.13;4.45;;;;;;;;;;4993095;28;20531;-80
2021/03/23 07:30:26;;;;;;;14.52;3.97;;;;;;;;;;4959861;28;20067;-79
2021/03/23 07:32:54;;;;;;;10.40;4.20;;;;;;;;;;4988863;28;20465;-78
2021/03/23 07:35:41;;;;;;;18.38;4.97;;;;;;;;;;4973834;28;20080;-78
2021/03/23 07:38:16;;;;;;;16.63;5.07;;;;;;;;;;4973347;28;20163;-79
2021/03/23 07:40:46;;;;;;;14.23;4.73;;;;;;;;;;4973967;28;20459;-79
2021/03/23 07:43:31;;;;;;;18.00;5.32;;;;;;;;;;4974449;28;20050;-79
2021/03/23 07:46:02;;;;;;;19.33;5.97;;;;;;;;;;4973156;28;20114;-79
2021/03/23 07:48:34;;;;;;;13.70;4.88;;;;;;;;;;4990842;28;20455;-79
2021/03/23 07:51:19;;;;;;;21.17;5.68;;;;;;;;;;4972342;28;20088;-79
2021/03/23 07:53:46;;;;;;;13.93;6.18;;;;;;;;;;4973105;28;20070;-79
2021/03/23 07:56:32;;;;;;;21.38;6.03;;;;;;;;;;4962858;28;20042;-78
2021/03/23 07:59:24;;;;;;;14.25;6.13;;;;;;;;;;4988608;28;20054;-79
2021/03/23 08:01:58;;;;;;;17.75;6.18;;;;;;;;;;4990657;28;20191;-78
2021/03/23 08:04:34;;;;;;;16.05;6.88;;;;;;;;;;4972178;28;20057;-79
2021/03/23 08:07:07;;;;;;;18.02;7.13;;;;;;;;;;4971646;28;20058;-78
2021/03/23 08:09:58;;;;;;;18.27;7.10;;;;;;;;;;4972002;28;20529;-79
2021/03/23 08:12:44;;;;;;;18.35;7.45;;;;;;;;;;4948222;28;20051;-78
2021/03/23 08:15:28;;;;;;;22.13;8.32;;;;;;;;;;4944189;28;20058;-77
2021/03/23 08:17:54;;;;;;;22.67;8.88;;;;;;;;;;4950440;28;20082;-78
2021/03/23 08:20:28;;;;;;;17.75;8.80;;;;;;;;;;4970633;28;20500;-78
2021/03/23 08:23:16;;;;;;;28.73;10.95;;;;;;;;;;4967120;28;20066;-80
2021/03/23 08:25:48;;;;;;;22.42;9.60;;;;;;;;;;4948530;28;20850;-77
2021/03/23 08:28:30;;;;;;;26.70;11.40;;;;;;;;;;4967077;28;20140;-77
2021/03/23 08:31:02;;;;;;;31.30;10.90;;;;;;;;;;4947034;28;20452;-77
2021/03/23 08:33:29;;;;;;;25.70;12.68;;;;;;;;;;4968982;28;20051;-77
2021/03/23 08:36:04;;;;;;;22.73;11.40;;;;;;;;;;4967613;28;20073;-77
2021/03/23 08:38:39;;;;;;;31.73;11.57;;;;;;;;;;4968271;28;20527;-77
2021/03/23 08:41:25;;;;;;;35.13;12.48;;;;;;;;;;4967070;28;20054;-77
2021/03/23 08:43:53;;;;;;;32.38;12.63;;;;;;;;;;4965723;28;20133;-77
2021/03/23 08:46:23;;;;;;;27.35;13.65;;;;;;;;;;4968799;28;20081;-77
2021/03/23 08:48:59;;;;;;;30.58;14.48;;;;;;;;;;4969909;28;20054;-77
2021/03/23 08:51:31;;;;;;;28.30;13.32;;;;;;;;;;4969735;28;20054;-77
2021/03/23 08:54:02;;;;;;;24.20;10.18;;;;;;;;;;4950987;28;20712;-77
2021/03/23 08:56:45;;;;;;;23.05;10.40;;;;;;;;;;4968673;28;20047;-77
2021/03/23 08:59:35;;;;;;;21.02;8.55;;;;;;;;;;4945343;28;20158;-79
2021/03/23 09:02:09;;;;;;;18.17;9.25;;;;;;;;;;4965985;28;20038;-78
2021/03/23 09:04:43;;;;;;;24.38;10.30;;;;;;;;;;4987522;28;20104;-78
2021/03/23 09:07:12;;;;;;;20.25;9.52;;;;;;;;;;4986490;28;20081;-78
2021/03/23 09:09:42;;;;;;;29.00;10.73;;;;;;;;;;4973274;28;20495;-78
2021/03/23 09:12:08;;;;;;;21.95;10.20;;;;;;;;;;4985000;28;20534;-78
2021/03/23 09:14:54;;;;;;;30.48;9.90;;;;;;;;;;4986285;28;20423;-77
2021/03/23 09:17:35;;;;;;;30.58;10.55;;;;;;;;;;4985483;28;20125;-78
2021/03/23 09:20:22;;;;;;;29.63;9.50;;;;;;;;;;4986016;28;20050;-78
2021/03/23 09:22:49;;;;;;;21.48;10.27;;;;;;;;;;4961520;28;20153;-78
2021/03/23 09:25:22;;;;;;;25.73;10.25;;;;;;;;;;4989487;28;20054;-78
2021/03/23 09:27:49;;;;;;;23.80;10.25;;;;;;;;;;4991824;28;20415;-78
2021/03/23 09:30:35;;;;;;;25.20;9.93;;;;;;;;;;4992175;28;20145;-78
2021/03/23 09:33:02;;;;;;;;;;;;;;;;;;4991288;28;20518;-78
2021/03/23 09:35:29;;;;;;;29.25;11.10;;;;;;;;;;4974992;28;21788;-78
2021/03/23 09:38:14;;;;;;;28.00;10.18;;;;;;;;;;4992003;28;20050;-78
2021/03/23 09:40:57;;;;;;;22.60;10.32;;;;;;;;;;4988538;28;20038;-79
2021/03/23 09:43:52;;;;;;;25.52;10.07;;;;;;;;;;4961683;28;20046;-79
2021/03/23 09:46:25;;;;;;;25.23;9.50;;;;;;;;;;4947037;28;20062;-79
2021/03/23 09:49:11;;;;;;;28.25;10.57;;;;;;;;;;4986102;28;20109;-79
2021/03/23 09:51:47;;;;;;;26.10;10.52;;;;;;;;;;4973570;28;20105;-79
2021/03/23 09:54:17;;;;;;;26.55;11.55;;;;;;;;;;4970136;28;20054;-79
2021/03/23 09:56:46;;;;;;;25.55;11.50;;;;;;;;;;4989256;28;20109;-78
2021/03/23 09:59:14;;;;;;;31.17;12.35;;;;;;;;;;5006312;28;20082;-78
2021/03/23 10:01:51;;;;;;;23.27;11.10;;;;;;;;;;4974264;28;20473;-78
2021/03/23 10:04:36;;;;;;;27.02;12.13;;;;;;;;;;4984233;28;20068;-78
2021/03/23 10:07:03;;;;;;;30.92;11.52;;;;;;;;;;4974084;28;20161;-79
2021/03/23 10:09:32;;;;;;;24.05;11.13;;;;;;;;;;4991806;28;20051;-78
2021/03/23 10:11:59;;;;;;;20.65;9.55;;;;;;;;;;4988369;28;20511;-78
2021/03/23 10:14:29;;;;;;;17.15;9.73;;;;;;;;;;4987392;28;20045;-79
2021/03/23 10:17:06;;;;;;;22.85;10.38;;;;;;;;;;4993989;28;20070;-77
2021/03/23 10:19:41;;;;;;;42.47;11.68;;;;;;;;;;4970442;28;20138;-77
2021/03/23 10:22:11;;;;;;;20.63;9.63;;;;;;;;;;4993456;28;20345;-77
2021/03/23 10:24:40;;;;;;;56.17;24.67;;;;;;;;;;4977102;28;20435;-77
2021/03/23 10:27:42;;;;;;;49.13;21.35;;;;;;;;;;4978183;28;20457;-77
2021/03/23 10:30:13;;;;;;;94.95;40.60;;;;;;;;;;4912530;29;20070;-76
2021/03/23 10:32:52;;;;;;;28.25;12.73;;;;;;;;;;4989465;28;20452;-77
2021/03/23 10:35:26;;;;;;;24.65;11.80;;;;;;;;;;4974570;28;20050;-76
2021/03/23 10:38:13;;;;;;;33.92;17.17;;;;;;;;;;4965493;28;20046;-77
2021/03/23 10:40:40;;;;;;;57.00;26.13;;;;;;;;;;4989419;28;20428;-77
2021/03/23 10:43:12;;;;;;;40.20;19.05;;;;;;;;;;4985615;28;20070;-77
2021/03/23 10:45:43;;;;;;;28.88;13.80;;;;;;;;;;4993792;28;20124;-76
2021/03/23 10:48:18;;;;;;;27.88;10.98;;;;;;;;;;4976837;28;20101;-77
2021/03/23 10:50:46;;;;;;;30.52;11.20;;;;;;;;;;4993875;28;20054;-77
2021/03/23 10:53:21;;;;;;;21.38;10.32;;;;;;;;;;4981367;28;20098;-77
2021/03/23 10:55:52;;;;;;;23.20;10.20;;;;;;;;;;4973982;28;20125;-78
2021/03/23 10:58:23;;;;;;;25.60;10.68;;;;;;;;;;4978213;28;20062;-78
2021/03/23 11:00:52;;;;;;;26.20;12.68;;;;;;;;;;4973883;28;20122;-78
2021/03/23 11:03:19;;;;;;;24.27;10.18;;;;;;;;;;4976695;28;20050;-78
2021/03/23 11:05:47;;;;;;;41.38;17.80;;;;;;;;;;4976016;28;20550;-78
2021/03/23 11:08:15;;;;;;;50.53;24.48;;;;;;;;;;4975728;28;20054;-77
2021/03/23 11:10:42;;;;;;;138.07;70.70;;;;;;;;;;4991377;28;20470;-77
2021/03/23 11:13:13;;;;;;;43.33;22.15;;;;;;;;;;4975099;28;20487;-77
2021/03/23 11:15:45;;;;;;;120.97;48.25;;;;;;;;;;4992078;28;20080;-77
2021/03/23 11:18:16;;;;;;;23.83;11.73;;;;;;;;;;4991851;28;20096;-77
2021/03/23 11:20:44;;;;;;;23.10;10.40;;;;;;;;;;4964300;28;20161;-77
2021/03/23 11:23:21;;;;;;;26.27;11.35;;;;;;;;;;4973016;28;20077;-78
2021/03/23 11:25:47;;;;;;;23.75;11.20;;;;;;;;;;4974563;28;20499;-77
2021/03/23 11:28:18;;;;;;;35.63;13.35;;;;;;;;;;4974286;28;20058;-77
2021/03/23 11:30:45;;;;;;;28.70;13.50;;;;;;;;;;4974583;28;20058;-77
2021/03/23 11:33:13;;;;;;;28.45;11.75;;;;;;;;;;4966408;28;20129;-77
2021/03/23 11:35:40;;;;;;;25.27;11.75;;;;;;;;;;4991824;28;20407;-78
2021/03/23 11:38:07;;;;;;;24.10;11.05;;;;;;;;;;4992748;28;20133;-77
2021/03/23 11:40:35;;;;;;;23.60;10.85;;;;;;;;;;4968763;28;20078;-77
2021/03/23 11:43:02;;;;;;;30.65;8.73;;;;;;;;;;4991845;28;20054;-77
2021/03/23 11:45:31;;;;;;;15.77;8.95;;;;;;;;;;4974005;28;20059;-77
2021/03/23 11:48:02;;;;;;;20.77;9.70;;;;;;;;;;4974498;28;20714;-77
2021/03/23 11:50:31;;;;;;;19.02;9.23;;;;;;;;;;4991720;28;20129;-77
2021/03/23 11:52:58;;;;;;;24.15;9.30;;;;;;;;;;4991550;28;20057;-77
2021/03/23 11:55:32;;;;;;;28.98;9.50;;;;;;;;;;4973420;28;20061;-77
2021/03/23 11:57:59;;;;;;;29.23;9.00;;;;;;;;;;4991975;28;20054;-77
2021/03/23 12:00:28;;;;;;;17.75;7.82;;;;;;;;;;4989214;28;20105;-77
2021/03/23 12:02:56;;;;;;;20.77;8.25;;;;;;;;;;4984975;28;20138;-77
2021/03/23 12:05:23;;;;;;;18.23;7.60;;;;;;;;;;4990946;28;20080;-77
2021/03/23 12:07:58;;;;;;;17.83;7.95;;;;;;;;;;4972054;28;20125;-77
2021/03/23 12:10:25;;;;;;;;;;;;;;;;;;4971996;28;20046;-77
2021/03/23 12:13:10;;;;;;;23.25;7.75;;;;;;;;;;4987791;28;19930;-77
2021/03/23 12:15:39;;;;;;;20.75;10.82;;;;;;;;;;4979868;28;20134;-77
2021/03/23 12:18:10;;;;;;;18.52;7.35;;;;;;;;;;4974601;28;20144;-77
2021/03/23 12:20:39;;;;;;;22.95;6.93;;;;;;;;;;4990505;28;20085;-77
2021/03/23 12:23:06;;;;;;;13.25;7.10;;;;;;;;;;4990544;28;20050;-77
2021/03/23 12:25:33;;;;;;;12.65;6.18;;;;;;;;;;4989750;28;20050;-78
2021/03/23 12:28:00;;;;;;;16.52;7.28;;;;;;;;;;4967851;28;20507;-77
2021/03/23 12:30:27;;;;;;;16.80;6.68;;;;;;;;;;4990000;28;20138;-77
2021/03/23 12:32:55;;;;;;;17.60;6.80;;;;;;;;;;4973013;28;20069;-77
2021/03/23 12:35:25;;;;;;;20.13;7.15;;;;;;;;;;4991133;28;20062;-77
2021/03/23 12:37:52;;;;;;;15.82;6.30;;;;;;;;;;4990324;28;20054;-77
2021/03/23 12:40:20;;;;;;;18.75;8.43;;;;;;;;;;4972957;28;20074;-77
2021/03/23 12:42:59;;;;;;;30.92;7.93;;;;;;;;;;4991296;28;20057;-77
2021/03/23 12:45:26;;;;;;;22.17;6.75;;;;;;;;;;4990440;28;20085;-77
2021/03/23 12:47:52;;;;;;;16.67;7.85;;;;;;;;;;4990778;28;20051;-77
2021/03/23 12:50:20;;;;;;;19.63;7.03;;;;;;;;;;4973269;28;20116;-77
2021/03/23 12:52:47;;;;;;;27.13;7.38;;;;;;;;;;4964672;28;20696;-78
2021/03/23 12:55:24;;;;;;;26.50;9.32;;;;;;;;;;4970335;28;20078;-78
2021/03/23 12:57:56;;;;;;;18.85;7.30;;;;;;;;;;4989806;28;20070;-77
2021/03/23 13:00:32;;;;;;;23.85;9.00;;;;;;;;;;4990134;28;20057;-77
2021/03/23 13:02:58;;;;;;;;;;;;;;;;;;4971449;28;20121;-77
2021/03/23 13:05:26;;;;;;;23.92;9.27;;;;;;;;;;4983598;28;19921;-77
2021/03/23 13:07:54;;;;;;;25.05;8.50;;;;;;;;;;4986044;28;20058;-77
2021/03/23 13:10:25;;;;;;;26.23;9.30;;;;;;;;;;4981917;28;20084;-78
2021/03/23 13:12:52;;;;;;;30.60;9.40;;;;;;;;;;4983944;28;20050;-78
2021/03/23 13:15:19;;;;;;;22.90;8.77;;;;;;;;;;4970234;28;20051;-77
2021/03/23 13:17:46;;;;;;;22.20;9.27;;;;;;;;;;4999762;28;20177;-77
2021/03/23 13:20:13;;;;;;;18.77;8.90;;;;;;;;;;4973063;28;20435;-77
2021/03/23 13:22:47;;;;;;;21.17;9.82;;;;;;;;;;4972692;28;20132;-77
2021/03/23 13:25:35;;;;;;;23.88;9.75;;;;;;;;;;4988781;28;20123;-77
2021/03/23 13:28:04;;;;;;;26.63;10.90;;;;;;;;;;4976390;28;20054;-77
2021/03/23 13:30:34;;;;;;;30.27;10.98;;;;;;;;;;4971158;28;20043;-77
2021/03/23 13:33:02;;;;;;;26.63;11.30;;;;;;;;;;4972890;28;20050;-77
2021/03/23 13:35:30;;;;;;;21.88;10.38;;;;;;;;;;4967638;28;20500;-77
2021/03/23 13:37:57;;;;;;;28.15;10.20;;;;;;;;;;4969786;28;20113;-77
2021/03/23 13:40:24;;;;;;;30.80;11.80;;;;;;;;;;4990538;28;20431;-77
2021/03/23 13:42:51;;;;;;;31.60;11.93;;;;;;;;;;4990302;28;20113;-78
2021/03/23 13:45:19;;;;;;;33.40;12.82;;;;;;;;;;4989987;28;20103;-77
2021/03/23 13:47:47;;;;;;;33.55;11.45;;;;;;;;;;4968438;28;20051;-77
2021/03/23 13:50:15;;;;;;;30.67;11.68;;;;;;;;;;4963755;28;20050;-77
2021/03/23 13:52:46;;;;;;;33.97;13.45;;;;;;;;;;4985989;28;20046;-77
2021/03/23 13:55:18;;;;;;;26.60;13.05;;;;;;;;;;4972589;28;20073;-77
2021/03/23 13:57:45;;;;;;;31.55;14.00;;;;;;;;;;4989420;28;20456;-77
2021/03/23 14:00:13;;;;;;;33.58;14.63;;;;;;;;;;4959114;28;20141;-78
2021/03/23 14:02:39;;;;;;;48.80;15.32;;;;;;;;;;4973082;28;20125;-77
2021/03/23 14:05:07;;;;;;;31.98;13.93;;;;;;;;;;4984223;28;20047;-77
2021/03/23 14:07:36;;;;;;;34.58;12.82;;;;;;;;;;4972005;28;20100;-77
2021/03/23 14:10:04;;;;;;;41.58;14.98;;;;;;;;;;4975169;28;20046;-77
2021/03/23 14:12:32;;;;;;;30.38;12.52;;;;;;;;;;4973646;28;20490;-77
2021/03/23 14:15:00;;;;;;;28.80;12.85;;;;;;;;;;4983266;28;20133;-79
2021/03/23 14:17:28;;;;;;;40.65;12.23;;;;;;;;;;4967466;28;20070;-77
2021/03/23 14:19:56;;;;;;;30.60;12.40;;;;;;;;;;4976371;28;20052;-78
2021/03/23 14:22:25;;;;;;;42.00;13.70;;;;;;;;;;4975381;28;20109;-77
2021/03/23 14:24:52;;;;;;;35.00;14.77;;;;;;;;;;4976148;28;20128;-77
2021/03/23 14:27:19;;;;;;;33.95;13.07;;;;;;;;;;4992280;28;20145;-77
2021/03/23 14:29:46;;;;;;;28.00;13.68;;;;;;;;;;4992882;28;20100;-77
2021/03/23 14:32:13;;;;;;;31.10;13.18;;;;;;;;;;4986812;28;20058;-77
2021/03/23 14:34:40;;;;;;;32.42;14.15;;;;;;;;;;4990299;28;20046;-77
2021/03/23 14:37:10;;;;;;;29.45;12.15;;;;;;;;;;4991477;28;20050;-77
2021/03/23 14:39:39;;;;;;;38.75;13.88;;;;;;;;;;4993010;28;20050;-77
2021/03/23 14:42:07;;;;;;;39.88;13.75;;;;;;;;;;4991952;28;20073;-77
2021/03/23 14:44:36;;;;;;;30.95;13.43;;;;;;;;;;4993449;28;20054;-78
2021/03/23 14:47:05;;;;;;;43.30;13.18;;;;;;;;;;4991176;28;20462;-77
2021/03/23 14:49:32;;;;;;;28.13;12.95;;;;;;;;;;4991542;28;20058;-77
2021/03/23 14:52:10;;;;;;;33.50;14.18;;;;;;;;;;4971607;28;20079;-78
2021/03/23 14:54:37;;;;;;;29.98;13.05;;;;;;;;;;4991100;28;20050;-77